sensor_id;sensor_type;location;lat;lon;timestamp;temperature;humidity
14006;DHT22;7078;51.542;7.314;2023-01-28T00:01:19;2.90;99.90
14006;DHT22;7078;51.542;7.314;2023-01-28T00:03:48;2.90;99.90
14006;DHT22;7078;51.542;7.314;2023-01-28T00:06:15;2.90;99.90
14006;DHT22;7078;51.542;7.314;2023-01-28T00:08:40;2.80;99.90
14006;DHT22;7078;51.542;7.314;2023-01-28T00:11:08;2.80;99.90
14006;DHT22;7078;51.542;7.314;2023-01-28T00:13:34;2.80;99.90
14006;DHT22;7078;51.542;7.314;2023-01-28T00:16:02;2.80;99.90
14006;DHT22;7078;51.542;7.314;2023-01-28T00:18:30;2.70;99.90
14006;DHT22;7078;51.542;7.314;2023-01-28T00:21:04;2.80;99.90
14006;DHT22;7078;51.542;7.314;2023-01-28T00:23:33;2.70;99.90
14006;DHT22;7078;51.542;7.314;2023-01-28T00:26:00;2.80;99.90
14006;DHT22;7078;51.542;7.314;2023-01-28T00:28:26;2.80;99.90
14006;DHT22;7078;51.542;7.314;2023-01-28T00:30:52;2.70;99.90
14006;DHT22;7078;51.542;7.314;2023-01-28T00:33:18;2.70;99.90
14006;DHT22;7078;51.542;7.314;2023-01-28T00:35:45;2.70;99.90
14006;DHT22;7078;51.542;7.314;2023-01-28T00:38:11;2.70;99.90
14006;DHT22;7078;51.542;7.314;2023-01-28T00:40:37;2.70;99.90
14006;DHT22;7078;51.542;7.314;2023-01-28T00:43:02;2.70;99.90
14006;DHT22;7078;51.542;7.314;2023-01-28T00:45:28;2.70;99.90
14006;DHT22;7078;51.542;7.314;2023-01-28T00:47:54;2.70;99.90
14006;DHT22;7078;51.542;7.314;2023-01-28T00:50:20;2.70;99.90
14006;DHT22;7078;51.542;7.314;2023-01-28T00:52:46;2.60;99.90
14006;DHT22;7078;51.542;7.314;2023-01-28T00:55:12;2.70;99.90
14006;DHT22;7078;51.542;7.314;2023-01-28T00:57:37;2.70;99.90
14006;DHT22;7078;51.542;7.314;2023-01-28T01:00:04;2.70;99.90
14006;DHT22;7078;51.542;7.314;2023-01-28T01:02:31;2.70;99.90
14006;DHT22;7078;51.542;7.314;2023-01-28T01:04:57;2.70;99.90
14006;DHT22;7078;51.542;7.314;2023-01-28T01:07:29;2.70;99.90
14006;DHT22;7078;51.542;7.314;2023-01-28T01:10:09;2.70;99.90
14006;DHT22;7078;51.542;7.314;2023-01-28T01:12:35;2.60;99.90
14006;DHT22;7078;51.542;7.314;2023-01-28T01:15:01;2.60;99.90
14006;DHT22;7078;51.542;7.314;2023-01-28T01:17:30;2.60;99.90
14006;DHT22;7078;51.542;7.314;2023-01-28T01:19:56;2.60;99.90
14006;DHT22;7078;51.542;7.314;2023-01-28T01:22:21;2.60;99.90
14006;DHT22;7078;51.542;7.314;2023-01-28T01:24:47;2.70;99.90
14006;DHT22;7078;51.542;7.314;2023-01-28T01:27:12;2.70;99.90
14006;DHT22;7078;51.542;7.314;2023-01-28T01:29:38;2.70;99.90
14006;DHT22;7078;51.542;7.314;2023-01-28T01:32:04;2.70;99.90
14006;DHT22;7078;51.542;7.314;2023-01-28T01:34:29;2.70;99.90
14006;DHT22;7078;51.542;7.314;2023-01-28T01:36:55;2.70;99.90
14006;DHT22;7078;51.542;7.314;2023-01-28T01:39:20;2.70;99.90
14006;DHT22;7078;51.542;7.314;2023-01-28T01:41:46;2.70;99.90
14006;DHT22;7078;51.542;7.314;2023-01-28T01:45:04;2.60;99.90
14006;DHT22;7078;51.542;7.314;2023-01-28T01:47:29;2.60;99.90
14006;DHT22;7078;51.542;7.314;2023-01-28T01:49:56;2.60;99.90
14006;DHT22;7078;51.542;7.314;2023-01-28T01:52:25;2.60;99.90
14006;DHT22;7078;51.542;7.314;2023-01-28T01:54:56;2.60;99.90
14006;DHT22;7078;51.542;7.314;2023-01-28T01:57:29;2.60;99.90
14006;DHT22;7078;51.542;7.314;2023-01-28T01:59:57;2.60;99.90
14006;DHT22;7078;51.542;7.314;2023-01-28T02:02:32;2.50;99.90
14006;DHT22;7078;51.542;7.314;2023-01-28T02:04:59;2.50;99.90
14006;DHT22;7078;51.542;7.314;2023-01-28T02:07:26;2.60;99.90
14006;DHT22;7078;51.542;7.314;2023-01-28T02:09:51;2.50;99.90
14006;DHT22;7078;51.542;7.314;2023-01-28T02:12:20;2.50;99.90
14006;DHT22;7078;51.542;7.314;2023-01-28T02:14:53;2.50;99.90
14006;DHT22;7078;51.542;7.314;2023-01-28T02:17:21;2.50;99.90
14006;DHT22;7078;51.542;7.314;2023-01-28T02:20:13;2.40;99.90
14006;DHT22;7078;51.542;7.314;2023-01-28T02:23:04;2.40;99.90
14006;DHT22;7078;51.542;7.314;2023-01-28T02:31:07;2.40;99.90
14006;DHT22;7078;51.542;7.314;2023-01-28T02:34:01;2.40;99.90
14006;DHT22;7078;51.542;7.314;2023-01-28T02:36:41;2.40;99.90
14006;DHT22;7078;51.542;7.314;2023-01-28T02:39:12;2.30;99.90
14006;DHT22;7078;51.542;7.314;2023-01-28T02:42:06;2.30;99.90
14006;DHT22;7078;51.542;7.314;2023-01-28T02:44:30;2.30;99.90
14006;DHT22;7078;51.542;7.314;2023-01-28T02:46:55;2.30;99.90
14006;DHT22;7078;51.542;7.314;2023-01-28T02:49:40;2.30;99.90
14006;DHT22;7078;51.542;7.314;2023-01-28T02:57:18;2.30;99.90
14006;DHT22;7078;51.542;7.314;2023-01-28T03:00:19;2.30;99.90
14006;DHT22;7078;51.542;7.314;2023-01-28T03:03:14;2.30;99.90
14006;DHT22;7078;51.542;7.314;2023-01-28T03:05:50;2.30;99.90
14006;DHT22;7078;51.542;7.314;2023-01-28T03:08:39;2.30;99.90
14006;DHT22;7078;51.542;7.314;2023-01-28T03:11:28;2.30;99.90
14006;DHT22;7078;51.542;7.314;2023-01-28T03:14:14;2.30;99.90
14006;DHT22;7078;51.542;7.314;2023-01-28T03:17:00;2.30;99.90
14006;DHT22;7078;51.542;7.314;2023-01-28T03:19:46;2.40;99.90
14006;DHT22;7078;51.542;7.314;2023-01-28T03:22:34;2.30;99.90
14006;DHT22;7078;51.542;7.314;2023-01-28T03:25:21;2.40;99.90
14006;DHT22;7078;51.542;7.314;2023-01-28T03:28:09;2.30;99.90
14006;DHT22;7078;51.542;7.314;2023-01-28T03:31:13;2.30;99.90
14006;DHT22;7078;51.542;7.314;2023-01-28T03:33:59;2.30;99.90
14006;DHT22;7078;51.542;7.314;2023-01-28T03:36:45;2.30;99.90
14006;DHT22;7078;51.542;7.314;2023-01-28T03:39:30;2.30;99.90
14006;DHT22;7078;51.542;7.314;2023-01-28T03:41:56;2.30;99.90
14006;DHT22;7078;51.542;7.314;2023-01-28T03:44:23;2.30;99.90
14006;DHT22;7078;51.542;7.314;2023-01-28T03:47:07;2.40;99.90
14006;DHT22;7078;51.542;7.314;2023-01-28T03:49:37;2.40;99.90
14006;DHT22;7078;51.542;7.314;2023-01-28T03:52:03;2.40;99.90
14006;DHT22;7078;51.542;7.314;2023-01-28T03:54:28;2.40;99.90
14006;DHT22;7078;51.542;7.314;2023-01-28T03:56:54;2.30;99.90
14006;DHT22;7078;51.542;7.314;2023-01-28T03:59:19;2.30;99.90
14006;DHT22;7078;51.542;7.314;2023-01-28T04:01:45;2.30;99.90
14006;DHT22;7078;51.542;7.314;2023-01-28T04:04:10;2.30;99.90
14006;DHT22;7078;51.542;7.314;2023-01-28T04:06:47;2.30;99.90
14006;DHT22;7078;51.542;7.314;2023-01-28T04:09:13;2.30;99.90
14006;DHT22;7078;51.542;7.314;2023-01-28T04:11:38;2.30;99.90
14006;DHT22;7078;51.542;7.314;2023-01-28T04:14:04;2.30;99.90
14006;DHT22;7078;51.542;7.314;2023-01-28T04:16:29;2.40;99.90
14006;DHT22;7078;51.542;7.314;2023-01-28T04:18:55;2.40;99.90
14006;DHT22;7078;51.542;7.314;2023-01-28T04:21:22;2.30;99.90
14006;DHT22;7078;51.542;7.314;2023-01-28T04:23:47;2.30;99.90
14006;DHT22;7078;51.542;7.314;2023-01-28T04:26:13;2.30;99.90
14006;DHT22;7078;51.542;7.314;2023-01-28T04:28:38;2.30;99.90
14006;DHT22;7078;51.542;7.314;2023-01-28T04:31:04;2.30;99.90
14006;DHT22;7078;51.542;7.314;2023-01-28T04:33:29;2.20;99.90
14006;DHT22;7078;51.542;7.314;2023-01-28T04:35:55;2.20;99.90
14006;DHT22;7078;51.542;7.314;2023-01-28T04:38:21;2.20;99.90
14006;DHT22;7078;51.542;7.314;2023-01-28T04:40:53;2.20;99.90
14006;DHT22;7078;51.542;7.314;2023-01-28T04:43:19;2.20;99.90
14006;DHT22;7078;51.542;7.314;2023-01-28T04:45:48;2.10;99.90
14006;DHT22;7078;51.542;7.314;2023-01-28T04:48:14;2.10;99.90
14006;DHT22;7078;51.542;7.314;2023-01-28T04:54:02;2.10;99.90
14006;DHT22;7078;51.542;7.314;2023-01-28T04:56:28;2.10;99.90
14006;DHT22;7078;51.542;7.314;2023-01-28T04:58:53;2.20;99.90
14006;DHT22;7078;51.542;7.314;2023-01-28T05:01:19;2.10;99.90
14006;DHT22;7078;51.542;7.314;2023-01-28T05:03:44;2.10;99.90
14006;DHT22;7078;51.542;7.314;2023-01-28T05:06:10;2.10;99.90
14006;DHT22;7078;51.542;7.314;2023-01-28T05:08:36;2.10;99.90
14006;DHT22;7078;51.542;7.314;2023-01-28T05:11:01;2.10;99.90
14006;DHT22;7078;51.542;7.314;2023-01-28T05:13:27;2.10;99.90
14006;DHT22;7078;51.542;7.314;2023-01-28T05:15:52;2.10;99.90
14006;DHT22;7078;51.542;7.314;2023-01-28T05:18:18;2.10;99.90
14006;DHT22;7078;51.542;7.314;2023-01-28T05:20:44;2.10;99.90
14006;DHT22;7078;51.542;7.314;2023-01-28T05:23:09;2.10;99.90
14006;DHT22;7078;51.542;7.314;2023-01-28T05:25:35;2.10;99.90
14006;DHT22;7078;51.542;7.314;2023-01-28T05:28:01;2.10;99.90
14006;DHT22;7078;51.542;7.314;2023-01-28T05:30:26;2.10;99.90
14006;DHT22;7078;51.542;7.314;2023-01-28T05:32:55;2.00;99.90
14006;DHT22;7078;51.542;7.314;2023-01-28T05:35:21;2.00;99.90
14006;DHT22;7078;51.542;7.314;2023-01-28T05:37:47;2.00;99.90
14006;DHT22;7078;51.542;7.314;2023-01-28T05:40:13;2.00;99.90
14006;DHT22;7078;51.542;7.314;2023-01-28T05:42:38;2.00;99.90
14006;DHT22;7078;51.542;7.314;2023-01-28T05:45:04;2.00;99.90
14006;DHT22;7078;51.542;7.314;2023-01-28T05:47:30;2.00;99.90
14006;DHT22;7078;51.542;7.314;2023-01-28T05:49:55;2.00;99.90
14006;DHT22;7078;51.542;7.314;2023-01-28T05:52:21;2.00;99.90
14006;DHT22;7078;51.542;7.314;2023-01-28T05:54:46;2.00;99.90
14006;DHT22;7078;51.542;7.314;2023-01-28T05:57:12;2.00;99.90
14006;DHT22;7078;51.542;7.314;2023-01-28T05:59:38;2.00;99.90
14006;DHT22;7078;51.542;7.314;2023-01-28T06:02:03;2.00;99.90
14006;DHT22;7078;51.542;7.314;2023-01-28T06:04:29;1.90;99.90
14006;DHT22;7078;51.542;7.314;2023-01-28T06:06:55;1.90;99.90
14006;DHT22;7078;51.542;7.314;2023-01-28T06:09:20;1.90;99.90
14006;DHT22;7078;51.542;7.314;2023-01-28T06:11:46;1.80;99.90
14006;DHT22;7078;51.542;7.314;2023-01-28T06:14:11;1.80;99.90
14006;DHT22;7078;51.542;7.314;2023-01-28T06:16:37;1.80;99.90
14006;DHT22;7078;51.542;7.314;2023-01-28T06:19:02;1.80;99.90
14006;DHT22;7078;51.542;7.314;2023-01-28T06:21:28;1.80;99.90
14006;DHT22;7078;51.542;7.314;2023-01-28T06:23:53;1.80;99.90
14006;DHT22;7078;51.542;7.314;2023-01-28T06:26:19;1.80;99.90
14006;DHT22;7078;51.542;7.314;2023-01-28T06:28:45;1.80;99.90
14006;DHT22;7078;51.542;7.314;2023-01-28T06:31:10;1.80;99.90
14006;DHT22;7078;51.542;7.314;2023-01-28T06:33:36;1.80;99.90
14006;DHT22;7078;51.542;7.314;2023-01-28T06:36:02;1.80;99.90
14006;DHT22;7078;51.542;7.314;2023-01-28T06:38:28;1.80;99.90
14006;DHT22;7078;51.542;7.314;2023-01-28T06:40:54;1.80;99.90
14006;DHT22;7078;51.542;7.314;2023-01-28T06:43:21;1.80;99.90
14006;DHT22;7078;51.542;7.314;2023-01-28T06:45:52;1.90;99.90
14006;DHT22;7078;51.542;7.314;2023-01-28T06:48:19;1.90;99.90
14006;DHT22;7078;51.542;7.314;2023-01-28T06:50:46;1.90;99.90
14006;DHT22;7078;51.542;7.314;2023-01-28T06:53:12;1.90;99.90
14006;DHT22;7078;51.542;7.314;2023-01-28T06:55:38;1.90;99.90
14006;DHT22;7078;51.542;7.314;2023-01-28T06:58:03;1.90;99.90
14006;DHT22;7078;51.542;7.314;2023-01-28T07:00:29;1.90;99.90
14006;DHT22;7078;51.542;7.314;2023-01-28T07:02:55;1.90;99.90
14006;DHT22;7078;51.542;7.314;2023-01-28T07:05:22;1.90;99.90
14006;DHT22;7078;51.542;7.314;2023-01-28T07:07:48;2.00;99.90
14006;DHT22;7078;51.542;7.314;2023-01-28T07:13:35;1.90;99.90
14006;DHT22;7078;51.542;7.314;2023-01-28T07:16:01;1.90;99.90
14006;DHT22;7078;51.542;7.314;2023-01-28T07:18:27;1.90;99.90
14006;DHT22;7078;51.542;7.314;2023-01-28T07:20:52;1.90;99.90
14006;DHT22;7078;51.542;7.314;2023-01-28T07:23:18;1.90;99.90
14006;DHT22;7078;51.542;7.314;2023-01-28T07:25:43;1.90;99.90
14006;DHT22;7078;51.542;7.314;2023-01-28T07:28:09;2.40;99.90
14006;DHT22;7078;51.542;7.314;2023-01-28T07:30:36;2.90;99.90
14006;DHT22;7078;51.542;7.314;2023-01-28T07:33:01;3.50;99.90
14006;DHT22;7078;51.542;7.314;2023-01-28T07:35:27;3.60;99.90
14006;DHT22;7078;51.542;7.314;2023-01-28T07:37:56;3.60;99.90
14006;DHT22;7078;51.542;7.314;2023-01-28T07:43:55;3.60;99.90
14006;DHT22;7078;51.542;7.314;2023-01-28T07:46:21;3.70;99.90
14006;DHT22;7078;51.542;7.314;2023-01-28T07:48:46;3.70;99.90
14006;DHT22;7078;51.542;7.314;2023-01-28T07:51:12;3.40;99.90
14006;DHT22;7078;51.542;7.314;2023-01-28T07:53:38;3.10;99.90
14006;DHT22;7078;51.542;7.314;2023-01-28T07:56:03;2.80;99.90
14006;DHT22;7078;51.542;7.314;2023-01-28T07:58:30;2.60;99.90
14006;DHT22;7078;51.542;7.314;2023-01-28T08:00:59;2.50;99.90
14006;DHT22;7078;51.542;7.314;2023-01-28T08:03:26;2.40;99.90
14006;DHT22;7078;51.542;7.314;2023-01-28T08:05:53;2.30;99.90
14006;DHT22;7078;51.542;7.314;2023-01-28T08:08:20;2.30;99.90
14006;DHT22;7078;51.542;7.314;2023-01-28T08:10:46;2.20;99.90
14006;DHT22;7078;51.542;7.314;2023-01-28T08:13:12;2.20;99.90
14006;DHT22;7078;51.542;7.314;2023-01-28T08:15:38;2.10;99.90
14006;DHT22;7078;51.542;7.314;2023-01-28T08:18:06;2.00;99.90
14006;DHT22;7078;51.542;7.314;2023-01-28T08:20:32;2.00;99.90
14006;DHT22;7078;51.542;7.314;2023-01-28T08:23:24;2.00;99.90
14006;DHT22;7078;51.542;7.314;2023-01-28T08:25:52;2.00;99.90
14006;DHT22;7078;51.542;7.314;2023-01-28T08:28:18;2.00;99.90
14006;DHT22;7078;51.542;7.314;2023-01-28T08:30:44;2.00;99.90
14006;DHT22;7078;51.542;7.314;2023-01-28T08:33:11;2.00;99.90
14006;DHT22;7078;51.542;7.314;2023-01-28T08:35:38;2.00;99.90
14006;DHT22;7078;51.542;7.314;2023-01-28T08:38:05;2.10;99.90
14006;DHT22;7078;51.542;7.314;2023-01-28T08:40:31;2.10;99.90
14006;DHT22;7078;51.542;7.314;2023-01-28T08:42:57;2.20;99.90
14006;DHT22;7078;51.542;7.314;2023-01-28T08:45:24;2.20;99.90
14006;DHT22;7078;51.542;7.314;2023-01-28T08:47:58;2.30;99.90
14006;DHT22;7078;51.542;7.314;2023-01-28T08:50:26;2.30;99.90
14006;DHT22;7078;51.542;7.314;2023-01-28T08:52:56;2.30;99.90
14006;DHT22;7078;51.542;7.314;2023-01-28T08:55:23;2.30;99.90
14006;DHT22;7078;51.542;7.314;2023-01-28T08:57:48;2.30;99.90
14006;DHT22;7078;51.542;7.314;2023-01-28T09:00:16;2.30;99.90
14006;DHT22;7078;51.542;7.314;2023-01-28T09:02:42;2.40;99.90
14006;DHT22;7078;51.542;7.314;2023-01-28T09:05:08;2.40;99.90
14006;DHT22;7078;51.542;7.314;2023-01-28T09:07:34;2.40;99.90
14006;DHT22;7078;51.542;7.314;2023-01-28T09:10:00;2.40;99.90
14006;DHT22;7078;51.542;7.314;2023-01-28T09:12:26;2.30;99.90
14006;DHT22;7078;51.542;7.314;2023-01-28T09:14:52;2.30;99.90
14006;DHT22;7078;51.542;7.314;2023-01-28T09:17:18;2.30;99.90
14006;DHT22;7078;51.542;7.314;2023-01-28T09:19:44;2.40;99.90
14006;DHT22;7078;51.542;7.314;2023-01-28T09:22:09;2.30;99.90
14006;DHT22;7078;51.542;7.314;2023-01-28T09:24:35;2.50;99.90
14006;DHT22;7078;51.542;7.314;2023-01-28T09:27:00;2.40;99.90
14006;DHT22;7078;51.542;7.314;2023-01-28T09:29:26;2.40;99.90
14006;DHT22;7078;51.542;7.314;2023-01-28T09:31:51;2.40;99.90
14006;DHT22;7078;51.542;7.314;2023-01-28T09:34:17;2.40;99.90
14006;DHT22;7078;51.542;7.314;2023-01-28T09:36:43;2.40;99.90
14006;DHT22;7078;51.542;7.314;2023-01-28T09:39:08;2.40;99.90
14006;DHT22;7078;51.542;7.314;2023-01-28T09:42:02;2.40;99.90
14006;DHT22;7078;51.542;7.314;2023-01-28T09:44:44;2.30;99.90
14006;DHT22;7078;51.542;7.314;2023-01-28T09:47:23;2.30;99.90
14006;DHT22;7078;51.542;7.314;2023-01-28T09:49:51;2.40;99.90
14006;DHT22;7078;51.542;7.314;2023-01-28T09:52:20;2.40;99.90
14006;DHT22;7078;51.542;7.314;2023-01-28T09:54:51;2.30;99.90
14006;DHT22;7078;51.542;7.314;2023-01-28T09:57:23;2.40;99.90
14006;DHT22;7078;51.542;7.314;2023-01-28T09:59:49;2.40;99.90
14006;DHT22;7078;51.542;7.314;2023-01-28T10:02:39;2.40;99.90
14006;DHT22;7078;51.542;7.314;2023-01-28T10:10:47;2.40;99.90
14006;DHT22;7078;51.542;7.314;2023-01-28T10:15:58;2.40;99.90
14006;DHT22;7078;51.542;7.314;2023-01-28T10:21:25;2.50;99.90
14006;DHT22;7078;51.542;7.314;2023-01-28T10:26:35;2.50;99.90
14006;DHT22;7078;51.542;7.314;2023-01-28T10:29:31;2.50;99.90
14006;DHT22;7078;51.542;7.314;2023-01-28T10:34:41;2.60;99.90
14006;DHT22;7078;51.542;7.314;2023-01-28T10:37:10;2.70;99.90
14006;DHT22;7078;51.542;7.314;2023-01-28T10:39:37;2.80;99.90
14006;DHT22;7078;51.542;7.314;2023-01-28T10:42:16;2.80;99.90
14006;DHT22;7078;51.542;7.314;2023-01-28T10:44:46;2.80;99.90
14006;DHT22;7078;51.542;7.314;2023-01-28T10:47:23;2.80;99.90
14006;DHT22;7078;51.542;7.314;2023-01-28T10:49:54;2.80;99.90
14006;DHT22;7078;51.542;7.314;2023-01-28T10:52:22;2.80;99.90
14006;DHT22;7078;51.542;7.314;2023-01-28T10:54:58;2.80;99.90
14006;DHT22;7078;51.542;7.314;2023-01-28T10:57:24;2.80;99.90
14006;DHT22;7078;51.542;7.314;2023-01-28T10:59:50;2.80;99.90
14006;DHT22;7078;51.542;7.314;2023-01-28T11:04:47;2.70;99.90
14006;DHT22;7078;51.542;7.314;2023-01-28T11:07:18;2.70;99.90
14006;DHT22;7078;51.542;7.314;2023-01-28T11:09:47;2.70;99.90
14006;DHT22;7078;51.542;7.314;2023-01-28T11:12:19;2.70;99.90
14006;DHT22;7078;51.542;7.314;2023-01-28T11:14:59;2.60;99.90
14006;DHT22;7078;51.542;7.314;2023-01-28T11:17:33;2.60;99.90
14006;DHT22;7078;51.542;7.314;2023-01-28T11:20:08;2.60;99.90
14006;DHT22;7078;51.542;7.314;2023-01-28T11:22:40;2.60;99.90
14006;DHT22;7078;51.542;7.314;2023-01-28T11:25:26;2.60;99.90
14006;DHT22;7078;51.542;7.314;2023-01-28T11:27:53;2.50;99.90
14006;DHT22;7078;51.542;7.314;2023-01-28T11:30:37;2.50;99.90
14006;DHT22;7078;51.542;7.314;2023-01-28T11:33:17;2.40;99.90
14006;DHT22;7078;51.542;7.314;2023-01-28T11:35:56;2.50;99.90
14006;DHT22;7078;51.542;7.314;2023-01-28T11:38:24;2.50;99.90
14006;DHT22;7078;51.542;7.314;2023-01-28T11:40:59;2.60;99.90
14006;DHT22;7078;51.542;7.314;2023-01-28T11:43:29;2.50;99.90
14006;DHT22;7078;51.542;7.314;2023-01-28T11:49:00;2.30;99.90
14006;DHT22;7078;51.542;7.314;2023-01-28T11:51:51;2.30;99.90
14006;DHT22;7078;51.542;7.314;2023-01-28T11:54:38;2.40;99.90
14006;DHT22;7078;51.542;7.314;2023-01-28T11:57:32;2.40;99.90
14006;DHT22;7078;51.542;7.314;2023-01-28T12:02:52;2.40;99.90
14006;DHT22;7078;51.542;7.314;2023-01-28T12:08:19;2.50;99.90
14006;DHT22;7078;51.542;7.314;2023-01-28T12:17:00;2.70;99.90
14006;DHT22;7078;51.542;7.314;2023-01-28T12:19:55;2.80;99.90
14006;DHT22;7078;51.542;7.314;2023-01-28T12:25:17;2.90;99.90
14006;DHT22;7078;51.542;7.314;2023-01-28T12:28:24;3.00;99.00
14006;DHT22;7078;51.542;7.314;2023-01-28T12:31:12;3.00;98.50
14006;DHT22;7078;51.542;7.314;2023-01-28T12:34:06;3.10;97.20
14006;DHT22;7078;51.542;7.314;2023-01-28T12:36:50;3.00;96.90
14006;DHT22;7078;51.542;7.314;2023-01-28T12:39:38;3.00;96.20
14006;DHT22;7078;51.542;7.314;2023-01-28T12:42:21;3.10;96.60
14006;DHT22;7078;51.542;7.314;2023-01-28T12:44:56;3.00;97.20
14006;DHT22;7078;51.542;7.314;2023-01-28T12:47:30;3.00;99.60
14006;DHT22;7078;51.542;7.314;2023-01-28T12:50:23;3.00;99.40
14006;DHT22;7078;51.542;7.314;2023-01-28T12:52:56;3.10;98.30
14006;DHT22;7078;51.542;7.314;2023-01-28T12:55:39;3.10;98.90
14006;DHT22;7078;51.542;7.314;2023-01-28T12:58:20;3.10;98.80
14006;DHT22;7078;51.542;7.314;2023-01-28T13:00:57;3.00;99.10
14006;DHT22;7078;51.542;7.314;2023-01-28T13:03:34;3.00;98.10
14006;DHT22;7078;51.542;7.314;2023-01-28T13:06:26;3.10;96.20
14006;DHT22;7078;51.542;7.314;2023-01-28T13:09:10;2.90;97.50
14006;DHT22;7078;51.542;7.314;2023-01-28T13:11:36;2.80;96.10
14006;DHT22;7078;51.542;7.314;2023-01-28T13:14:04;2.70;96.70
14006;DHT22;7078;51.542;7.314;2023-01-28T13:16:30;2.60;97.20
14006;DHT22;7078;51.542;7.314;2023-01-28T13:19:40;2.60;99.50
14006;DHT22;7078;51.542;7.314;2023-01-28T13:22:31;2.60;98.60
14006;DHT22;7078;51.542;7.314;2023-01-28T13:24:56;2.70;98.40
14006;DHT22;7078;51.542;7.314;2023-01-28T13:27:26;2.70;98.30
14006;DHT22;7078;51.542;7.314;2023-01-28T13:30:17;2.70;98.90
14006;DHT22;7078;51.542;7.314;2023-01-28T13:32:58;2.80;98.10
14006;DHT22;7078;51.542;7.314;2023-01-28T13:35:35;2.90;99.50
14006;DHT22;7078;51.542;7.314;2023-01-28T13:38:14;3.00;96.40
14006;DHT22;7078;51.542;7.314;2023-01-28T13:40:42;2.90;96.30
14006;DHT22;7078;51.542;7.314;2023-01-28T13:46:26;2.70;96.80
14006;DHT22;7078;51.542;7.314;2023-01-28T13:48:54;2.70;98.90
14006;DHT22;7078;51.542;7.314;2023-01-28T13:51:34;2.70;99.90
14006;DHT22;7078;51.542;7.314;2023-01-28T14:19:01;3.20;94.50
14006;DHT22;7078;51.542;7.314;2023-01-28T14:21:29;3.20;95.90
14006;DHT22;7078;51.542;7.314;2023-01-28T14:23:56;3.20;95.80
14006;DHT22;7078;51.542;7.314;2023-01-28T14:26:45;3.10;95.70
14006;DHT22;7078;51.542;7.314;2023-01-28T14:31:49;3.00;97.90
14006;DHT22;7078;51.542;7.314;2023-01-28T14:34:28;3.00;96.60
14006;DHT22;7078;51.542;7.314;2023-01-28T14:37:07;2.90;99.30
14006;DHT22;7078;51.542;7.314;2023-01-28T14:42:40;2.80;99.90
14006;DHT22;7078;51.542;7.314;2023-01-28T14:56:12;2.60;99.60
14006;DHT22;7078;51.542;7.314;2023-01-28T14:58:55;2.60;99.90
14006;DHT22;7078;51.542;7.314;2023-01-28T15:01:24;2.60;99.90
14006;DHT22;7078;51.542;7.314;2023-01-28T15:03:50;2.60;99.90
14006;DHT22;7078;51.542;7.314;2023-01-28T15:06:19;2.70;99.90
14006;DHT22;7078;51.542;7.314;2023-01-28T15:08:46;2.70;99.80
14006;DHT22;7078;51.542;7.314;2023-01-28T15:11:19;2.70;98.80
14006;DHT22;7078;51.542;7.314;2023-01-28T15:13:47;2.60;99.20
14006;DHT22;7078;51.542;7.314;2023-01-28T15:16:19;2.60;99.90
14006;DHT22;7078;51.542;7.314;2023-01-28T15:18:46;2.60;99.90
14006;DHT22;7078;51.542;7.314;2023-01-28T15:21:12;2.50;99.90
14006;DHT22;7078;51.542;7.314;2023-01-28T15:23:42;2.50;99.90
14006;DHT22;7078;51.542;7.314;2023-01-28T15:26:13;2.50;99.90
14006;DHT22;7078;51.542;7.314;2023-01-28T15:28:42;2.40;99.90
14006;DHT22;7078;51.542;7.314;2023-01-28T15:34:21;2.40;99.90
14006;DHT22;7078;51.542;7.314;2023-01-28T15:36:48;2.30;99.90
14006;DHT22;7078;51.542;7.314;2023-01-28T15:39:22;2.30;99.90
14006;DHT22;7078;51.542;7.314;2023-01-28T15:41:51;2.20;99.90
14006;DHT22;7078;51.542;7.314;2023-01-28T15:47:30;2.10;99.90
14006;DHT22;7078;51.542;7.314;2023-01-28T15:53:19;1.90;99.90
14006;DHT22;7078;51.542;7.314;2023-01-28T15:55:45;1.90;99.90
14006;DHT22;7078;51.542;7.314;2023-01-28T16:04:04;1.60;99.90
14006;DHT22;7078;51.542;7.314;2023-01-28T16:06:36;1.60;99.90
14006;DHT22;7078;51.542;7.314;2023-01-28T16:09:13;1.50;99.90
14006;DHT22;7078;51.542;7.314;2023-01-28T16:11:41;1.40;99.90
14006;DHT22;7078;51.542;7.314;2023-01-28T16:14:28;1.40;99.90
14006;DHT22;7078;51.542;7.314;2023-01-28T16:16:55;1.40;99.90
14006;DHT22;7078;51.542;7.314;2023-01-28T16:19:36;1.30;99.90
14006;DHT22;7078;51.542;7.314;2023-01-28T16:22:02;1.30;99.90
14006;DHT22;7078;51.542;7.314;2023-01-28T16:24:30;1.30;99.90
14006;DHT22;7078;51.542;7.314;2023-01-28T16:27:00;1.20;99.90
14006;DHT22;7078;51.542;7.314;2023-01-28T16:29:27;1.20;99.90
14006;DHT22;7078;51.542;7.314;2023-01-28T16:31:54;1.20;99.90
14006;DHT22;7078;51.542;7.314;2023-01-28T16:34:20;1.10;99.90
14006;DHT22;7078;51.542;7.314;2023-01-28T16:36:45;1.00;99.90
14006;DHT22;7078;51.542;7.314;2023-01-28T16:39:11;1.00;99.90
14006;DHT22;7078;51.542;7.314;2023-01-28T16:41:42;1.00;99.90
14006;DHT22;7078;51.542;7.314;2023-01-28T16:44:14;0.90;99.90
14006;DHT22;7078;51.542;7.314;2023-01-28T16:46:41;0.90;99.90
14006;DHT22;7078;51.542;7.314;2023-01-28T16:49:06;0.80;99.90
14006;DHT22;7078;51.542;7.314;2023-01-28T16:51:32;0.80;99.90
14006;DHT22;7078;51.542;7.314;2023-01-28T16:53:58;0.80;99.90
14006;DHT22;7078;51.542;7.314;2023-01-28T16:56:26;0.80;99.90
14006;DHT22;7078;51.542;7.314;2023-01-28T16:58:52;0.70;99.90
14006;DHT22;7078;51.542;7.314;2023-01-28T17:01:18;0.60;99.90
14006;DHT22;7078;51.542;7.314;2023-01-28T17:03:44;0.60;99.90
14006;DHT22;7078;51.542;7.314;2023-01-28T17:06:15;0.60;99.90
14006;DHT22;7078;51.542;7.314;2023-01-28T17:08:41;0.50;99.90
14006;DHT22;7078;51.542;7.314;2023-01-28T17:11:07;0.50;99.90
14006;DHT22;7078;51.542;7.314;2023-01-28T17:13:33;0.50;99.90
14006;DHT22;7078;51.542;7.314;2023-01-28T17:16:02;0.40;99.90
14006;DHT22;7078;51.542;7.314;2023-01-28T17:18:28;0.40;99.90
14006;DHT22;7078;51.542;7.314;2023-01-28T17:20:54;0.30;99.90
14006;DHT22;7078;51.542;7.314;2023-01-28T17:23:24;0.30;99.90
14006;DHT22;7078;51.542;7.314;2023-01-28T17:25:49;0.30;99.90
14006;DHT22;7078;51.542;7.314;2023-01-28T17:28:15;0.30;99.90
14006;DHT22;7078;51.542;7.314;2023-01-28T17:30:41;0.20;99.90
14006;DHT22;7078;51.542;7.314;2023-01-28T17:33:07;0.20;99.90
14006;DHT22;7078;51.542;7.314;2023-01-28T17:35:34;0.10;99.90
14006;DHT22;7078;51.542;7.314;2023-01-28T17:38:01;0.10;99.90
14006;DHT22;7078;51.542;7.314;2023-01-28T17:40:27;0.10;99.90
14006;DHT22;7078;51.542;7.314;2023-01-28T17:42:54;0.20;99.90
14006;DHT22;7078;51.542;7.314;2023-01-28T17:45:20;0.20;99.90
14006;DHT22;7078;51.542;7.314;2023-01-28T17:47:45;0.10;99.90
14006;DHT22;7078;51.542;7.314;2023-01-28T17:50:11;0.10;99.90
14006;DHT22;7078;51.542;7.314;2023-01-28T17:52:36;0.20;99.90
14006;DHT22;7078;51.542;7.314;2023-01-28T17:55:02;0.10;99.90
14006;DHT22;7078;51.542;7.314;2023-01-28T17:57:28;0.10;99.90
14006;DHT22;7078;51.542;7.314;2023-01-28T17:59:54;0.00;99.90
14006;DHT22;7078;51.542;7.314;2023-01-28T18:02:19;0.00;99.90
14006;DHT22;7078;51.542;7.314;2023-01-28T18:04:45;-0.10;99.90
14006;DHT22;7078;51.542;7.314;2023-01-28T18:07:11;-0.10;99.90
14006;DHT22;7078;51.542;7.314;2023-01-28T18:09:38;-0.10;99.90
14006;DHT22;7078;51.542;7.314;2023-01-28T18:12:04;-0.20;99.90
14006;DHT22;7078;51.542;7.314;2023-01-28T18:14:29;-0.20;99.90
14006;DHT22;7078;51.542;7.314;2023-01-28T18:16:55;-0.20;99.90
14006;DHT22;7078;51.542;7.314;2023-01-28T18:19:21;-0.20;99.90
14006;DHT22;7078;51.542;7.314;2023-01-28T18:21:46;-0.20;99.90